createdAt,value
2022-09-21T00:01:04.263Z,5.06
2022-09-21T00:03:30.586Z,5.08
2022-09-21T00:06:06.931Z,5.04
2022-09-21T00:08:33.660Z,5.01
2022-09-21T00:11:00.251Z,5.01
2022-09-21T00:13:28.293Z,5.02
2022-09-21T00:15:55.610Z,4.98
2022-09-21T00:18:22.536Z,5.00
2022-09-21T00:20:49.056Z,4.93
2022-09-21T00:23:15.497Z,4.94
2022-09-21T00:25:43.052Z,4.92
2022-09-21T00:28:09.353Z,4.93
2022-09-21T00:30:35.611Z,4.90
2022-09-21T00:33:01.879Z,4.91
2022-09-21T00:35:28.183Z,4.87
2022-09-21T00:37:54.736Z,4.88
2022-09-21T00:40:21.043Z,4.86
2022-09-21T00:42:47.887Z,4.83
2022-09-21T00:45:21.003Z,4.81
2022-09-21T00:47:50.232Z,4.80
2022-09-21T00:50:18.715Z,4.77
2022-09-21T00:52:47.156Z,4.73
2022-09-21T00:55:17.025Z,4.72
2022-09-21T00:57:44.053Z,4.70
2022-09-21T01:00:10.602Z,4.70
2022-09-21T01:02:37.567Z,4.68
2022-09-21T01:05:08.461Z,4.66
2022-09-21T01:07:36.950Z,4.67
2022-09-21T01:10:06.498Z,4.64
2022-09-21T01:12:46.423Z,4.65
2022-09-21T01:15:18.789Z,4.63
2022-09-21T01:17:45.034Z,4.61
2022-09-21T01:20:20.401Z,4.61
2022-09-21T01:23:05.511Z,4.59
2022-09-21T01:25:43.999Z,4.60
2022-09-21T01:28:16.423Z,4.55
2022-09-21T01:30:48.272Z,4.54
2022-09-21T01:33:36.482Z,4.55
2022-09-21T01:36:12.021Z,4.56
2022-09-21T01:38:43.280Z,4.52
2022-09-21T01:41:12.178Z,4.49
2022-09-21T01:43:43.451Z,4.47
2022-09-21T01:46:13.488Z,4.48
2022-09-21T01:48:41.710Z,4.46
2022-09-21T01:51:10.741Z,4.39
2022-09-21T01:53:43.201Z,4.37
2022-09-21T01:56:22.111Z,4.38
2022-09-21T01:58:48.355Z,4.36
2022-09-21T02:01:17.266Z,4.34
2022-09-21T02:03:45.086Z,4.33
2022-09-21T02:06:11.591Z,4.32
2022-09-21T02:08:38.531Z,4.29
2022-09-21T02:11:05.654Z,4.31
2022-09-21T02:13:39.116Z,4.31
2022-09-21T02:16:31.036Z,4.26
2022-09-21T02:18:57.720Z,4.26
2022-09-21T02:21:33.165Z,4.24
2022-09-21T02:24:02.285Z,4.22
2022-09-21T02:26:34.968Z,4.21
2022-09-21T02:29:05.471Z,4.18
2022-09-21T02:31:31.760Z,4.20
2022-09-21T02:34:07.834Z,4.20
2022-09-21T02:36:39.528Z,4.18
2022-09-21T02:39:19.857Z,4.15
2022-09-21T02:42:01.751Z,4.12
2022-09-21T02:44:33.579Z,4.12
2022-09-21T02:47:06.630Z,4.12
2022-09-21T02:49:39.056Z,4.10
2022-09-21T02:52:09.355Z,4.07
2022-09-21T02:54:36.715Z,4.08
2022-09-21T02:57:03.505Z,4.05
2022-09-21T02:59:29.787Z,4.05
2022-09-21T03:01:56.186Z,4.04
2022-09-21T03:04:23.076Z,3.98
2022-09-21T03:06:49.344Z,3.95
2022-09-21T03:09:15.664Z,3.92
2022-09-21T03:11:44.880Z,3.94
2022-09-21T03:14:11.213Z,3.94
2022-09-21T03:16:37.947Z,3.90
2022-09-21T03:19:05.148Z,3.92
2022-09-21T03:21:31.600Z,3.91
2022-09-21T03:23:57.852Z,3.86
2022-09-21T03:26:24.137Z,3.87
2022-09-21T03:28:50.703Z,3.86
2022-09-21T03:31:17.360Z,3.85
2022-09-21T03:33:43.830Z,3.86
2022-09-21T03:36:10.307Z,3.84
2022-09-21T03:38:37.688Z,3.84
2022-09-21T03:41:04.806Z,3.85
2022-09-21T03:43:31.136Z,3.86
2022-09-21T03:45:57.904Z,3.86
2022-09-21T03:48:24.413Z,3.85
2022-09-21T03:50:50.674Z,3.84
2022-09-21T03:53:17.048Z,3.83
2022-09-21T03:55:43.315Z,3.80
2022-09-21T03:58:10.106Z,3.80
2022-09-21T04:00:36.436Z,3.77
2022-09-21T04:03:02.917Z,3.77
2022-09-21T04:05:29.203Z,3.72
2022-09-21T04:07:56.340Z,3.73
2022-09-21T04:10:33.207Z,3.70
2022-09-21T04:13:01.150Z,3.67
2022-09-21T04:15:29.228Z,3.66
2022-09-21T04:17:55.897Z,3.63
2022-09-21T04:20:22.489Z,3.61
2022-09-21T04:22:49.012Z,3.57
2022-09-21T04:25:15.776Z,3.51
2022-09-21T04:27:42.100Z,3.53
2022-09-21T04:30:10.229Z,3.50
2022-09-21T04:32:36.970Z,3.49
2022-09-21T04:35:03.603Z,3.51
2022-09-21T04:37:30.275Z,3.54
2022-09-21T04:39:56.580Z,3.57
2022-09-21T04:42:23.269Z,3.61
2022-09-21T04:44:49.514Z,3.62
2022-09-21T04:47:15.978Z,3.66
2022-09-21T04:49:42.254Z,3.68
2022-09-21T04:52:08.504Z,3.65
2022-09-21T04:54:34.822Z,3.66
2022-09-21T04:57:01.131Z,3.67
2022-09-21T04:59:27.638Z,3.67
2022-09-21T05:01:53.972Z,3.70
2022-09-21T05:04:20.291Z,3.70
2022-09-21T05:06:46.550Z,3.71
2022-09-21T05:09:31.376Z,3.73
2022-09-21T05:11:57.891Z,3.76
2022-09-21T05:14:24.312Z,3.76
2022-09-21T05:16:50.659Z,3.75
2022-09-21T05:19:17.385Z,3.73
2022-09-21T05:21:43.768Z,3.75
2022-09-21T05:24:10.091Z,3.76
2022-09-21T05:26:36.365Z,3.80
2022-09-21T05:29:02.843Z,3.86
2022-09-21T05:31:35.114Z,3.89
2022-09-21T05:34:04.567Z,3.94
2022-09-21T05:37:03.297Z,4.00
2022-09-21T05:39:29.702Z,4.04
2022-09-21T05:41:56.326Z,4.06
2022-09-21T05:44:22.826Z,4.10
2022-09-21T05:46:57.768Z,4.11
2022-09-21T05:49:33.344Z,4.12
2022-09-21T05:52:02.586Z,4.14
2022-09-21T05:54:34.486Z,4.15
2022-09-21T05:57:06.632Z,4.17
2022-09-21T05:59:41.240Z,4.21
2022-09-21T06:02:16.599Z,4.25
2022-09-21T06:04:43.242Z,4.33
2022-09-21T06:07:09.487Z,4.36
2022-09-21T06:09:37.994Z,4.42
2022-09-21T06:12:08.311Z,4.46
2022-09-21T06:14:34.579Z,4.49
2022-09-21T06:17:02.380Z,4.55
2022-09-21T06:19:28.682Z,4.62
2022-09-21T06:21:54.940Z,4.64
2022-09-21T06:24:22.947Z,4.72
2022-09-21T06:26:50.379Z,4.83
2022-09-21T06:29:18.684Z,5.08
2022-09-21T06:31:44.927Z,5.28
2022-09-21T06:34:11.176Z,5.42
2022-09-21T06:36:37.450Z,5.58
2022-09-21T06:39:03.717Z,5.74
2022-09-21T06:41:29.968Z,5.83
2022-09-21T06:43:57.109Z,6.02
2022-09-21T06:46:24.125Z,6.18
2022-09-21T06:48:50.563Z,6.36
2022-09-21T06:51:16.844Z,6.52
2022-09-21T06:53:43.094Z,6.71
2022-09-21T06:56:10.025Z,6.88
2022-09-21T06:58:37.589Z,7.06
2022-09-21T07:01:14.036Z,7.25
2022-09-21T07:03:41.485Z,7.46
2022-09-21T07:06:08.306Z,7.64
2022-09-21T07:11:23.610Z,7.97
2022-09-21T07:13:50.083Z,8.15
2022-09-21T07:16:16.516Z,8.29
2022-09-21T07:18:43.806Z,8.44
2022-09-21T07:21:11.011Z,8.60
2022-09-21T07:23:37.789Z,8.74
2022-09-21T07:26:05.424Z,8.91
2022-09-21T07:28:32.172Z,9.09
2022-09-21T07:30:59.091Z,9.21
2022-09-21T07:33:25.774Z,9.35
2022-09-21T07:35:56.965Z,9.50
2022-09-21T07:38:24.069Z,9.62
2022-09-21T07:40:50.600Z,9.79
2022-09-21T07:43:17.777Z,9.88
2022-09-21T07:45:44.076Z,10.09
2022-09-21T07:48:10.363Z,10.21
2022-09-21T07:50:36.750Z,10.37
2022-09-21T07:53:03.656Z,10.46
2022-09-21T07:55:30.205Z,10.56
2022-09-21T07:58:14.932Z,10.70
2022-09-21T08:00:41.286Z,10.80
2022-09-21T08:03:07.605Z,10.92
2022-09-21T08:05:33.877Z,11.02
2022-09-21T08:08:00.186Z,11.12
2022-09-21T08:10:29.378Z,11.19
2022-09-21T08:12:58.691Z,11.30
2022-09-21T08:15:46.891Z,11.40
2022-09-21T08:18:11.288Z,11.54
2022-09-21T08:20:38.007Z,11.63
2022-09-21T08:23:04.942Z,11.77
2022-09-21T08:25:31.510Z,11.77
2022-09-21T08:27:58.672Z,11.92
2022-09-21T08:30:27.875Z,12.06
2022-09-21T08:32:54.911Z,12.27
2022-09-21T08:35:21.172Z,12.34
2022-09-21T08:37:47.639Z,12.44
2022-09-21T08:40:16.698Z,12.49
2022-09-21T08:42:50.907Z,12.44
2022-09-21T08:45:19.335Z,12.44
2022-09-21T08:47:45.559Z,12.60
2022-09-21T08:50:26.893Z,12.54
2022-09-21T08:52:58.478Z,12.46
2022-09-21T08:55:24.778Z,12.64
2022-09-21T08:57:51.299Z,12.64
2022-09-21T09:00:18.703Z,12.74
2022-09-21T09:02:57.325Z,12.81
2022-09-21T09:05:39.474Z,12.77
2022-09-21T09:08:24.416Z,12.85
2022-09-21T09:10:53.694Z,12.99
2022-09-21T09:13:35.213Z,13.05
2022-09-21T09:16:06.726Z,13.04
2022-09-21T09:18:43.292Z,13.12
2022-09-21T09:21:15.922Z,13.06
2022-09-21T09:23:48.966Z,13.12
2022-09-21T09:26:20.634Z,13.18
2022-09-21T09:28:53.413Z,13.29
2022-09-21T09:31:28.754Z,13.41
2022-09-21T09:34:13.716Z,13.42
2022-09-21T09:36:57.747Z,13.43
2022-09-21T09:39:25.153Z,13.49
2022-09-21T09:42:09.728Z,13.57
2022-09-21T09:44:35.946Z,13.55
2022-09-21T09:47:05.347Z,13.66
2022-09-21T09:49:42.266Z,13.70
2022-09-21T09:52:11.731Z,13.77
2022-09-21T09:54:38.138Z,13.85
2022-09-21T09:57:05.528Z,13.90
2022-09-21T09:59:35.591Z,13.98
2022-09-21T10:02:02.510Z,14.11
2022-09-21T10:04:29.092Z,14.23
2022-09-21T10:06:55.621Z,14.36
2022-09-21T10:09:29.183Z,14.35
2022-09-21T10:11:58.215Z,14.32
2022-09-21T10:14:25.812Z,14.26
2022-09-21T10:16:53.402Z,14.31
2022-09-21T10:19:24.696Z,14.41
2022-09-21T10:21:58.260Z,14.54
2022-09-21T10:24:35.558Z,14.61
2022-09-21T10:27:02.099Z,14.58
2022-09-21T10:29:30.102Z,14.55
2022-09-21T10:32:11.104Z,14.72
2022-09-21T10:34:41.945Z,15.02
2022-09-21T10:37:25.408Z,15.30
2022-09-21T10:39:51.762Z,15.43
2022-09-21T10:42:18.694Z,15.61
2022-09-21T10:44:44.915Z,15.66
2022-09-21T10:47:17.238Z,15.78
2022-09-21T10:49:55.205Z,16.03
2022-09-21T10:52:24.120Z,16.41
2022-09-21T10:54:52.737Z,16.72
2022-09-21T10:57:20.607Z,17.01
2022-09-21T10:59:46.919Z,17.35
2022-09-21T11:02:29.514Z,17.75
2022-09-21T11:04:58.991Z,19.41
2022-09-21T11:07:25.215Z,20.92
2022-09-21T11:10:09.607Z,22.06
2022-09-21T11:12:54.464Z,22.76
2022-09-21T11:15:39.544Z,23.01
2022-09-21T11:18:21.164Z,23.46
2022-09-21T11:20:49.571Z,23.52
2022-09-21T11:23:24.950Z,23.56
2022-09-21T11:26:05.205Z,22.50
2022-09-21T11:28:40.790Z,21.86
2022-09-21T11:31:14.580Z,22.38
2022-09-21T11:33:46.460Z,22.71
2022-09-21T11:36:30.155Z,23.58
2022-09-21T11:39:03.353Z,24.19
2022-09-21T11:41:34.232Z,24.39
2022-09-21T11:44:02.654Z,24.33
2022-09-21T11:46:48.129Z,24.10
2022-09-21T11:49:27.802Z,24.63
2022-09-21T11:52:03.886Z,23.47
2022-09-21T11:54:30.110Z,21.38
2022-09-21T11:57:03.467Z,21.21
2022-09-21T11:59:42.349Z,21.63
2022-09-21T12:02:22.195Z,22.57
2022-09-21T12:04:59.930Z,23.08
2022-09-21T12:07:41.782Z,23.72
2022-09-21T12:10:17.129Z,23.69
2022-09-21T12:12:46.226Z,24.12
2022-09-21T12:15:22.752Z,24.24
2022-09-21T12:17:58.567Z,24.22
2022-09-21T12:20:30.922Z,23.41
2022-09-21T12:23:03.436Z,22.04
2022-09-21T12:25:37.179Z,22.80
2022-09-21T12:28:18.929Z,23.52
2022-09-21T12:30:48.126Z,24.34
2022-09-21T12:33:33.486Z,24.59
2022-09-21T12:36:14.649Z,24.76
2022-09-21T12:38:44.263Z,24.97
2022-09-21T12:41:36.743Z,25.07
2022-09-21T12:44:12.303Z,24.98
2022-09-21T12:46:43.736Z,25.01
2022-09-21T12:49:19.926Z,25.28
2022-09-21T12:51:55.436Z,25.03
2022-09-21T12:54:24.627Z,24.70
2022-09-21T12:57:03.730Z,24.86
2022-09-21T12:59:43.899Z,24.39
2022-09-21T13:02:14.007Z,24.30
2022-09-21T13:04:49.778Z,24.37
2022-09-21T13:07:49.621Z,24.22
2022-09-21T13:10:40.091Z,23.69
2022-09-21T13:13:08.548Z,23.49
2022-09-21T13:15:48.254Z,22.97
2022-09-21T13:18:21.217Z,22.12
2022-09-21T13:20:48.528Z,21.09
2022-09-21T13:23:16.472Z,20.67
2022-09-21T13:25:48.261Z,20.26
2022-09-21T13:28:19.721Z,20.03
2022-09-21T13:30:47.123Z,19.46
2022-09-21T13:33:19.737Z,19.30
2022-09-21T13:35:51.931Z,19.11
2022-09-21T13:38:27.452Z,18.76
2022-09-21T13:41:01.411Z,18.57
2022-09-21T13:43:46.935Z,18.77
2022-09-21T13:46:31.862Z,18.36
2022-09-21T13:48:59.639Z,18.37
2022-09-21T13:51:25.995Z,18.16
2022-09-21T13:53:56.387Z,18.02
2022-09-21T13:56:25.336Z,18.04
2022-09-21T13:58:53.906Z,18.00
2022-09-21T14:01:47.815Z,18.00
2022-09-21T14:04:36.980Z,17.85
2022-09-21T14:07:05.853Z,18.08
2022-09-21T14:09:42.329Z,18.35
2022-09-21T14:12:19.292Z,18.57
2022-09-21T14:15:05.508Z,18.79
2022-09-21T14:17:36.258Z,18.48
2022-09-21T14:20:03.583Z,18.37
2022-09-21T14:22:33.220Z,18.01
2022-09-21T14:25:18.157Z,17.61
2022-09-21T14:27:46.228Z,17.23
2022-09-21T14:30:21.061Z,17.10
2022-09-21T14:32:56.752Z,16.90
2022-09-21T14:35:25.179Z,17.00
2022-09-21T14:38:00.116Z,16.92
2022-09-21T14:40:38.970Z,16.70
2022-09-21T14:43:12.310Z,16.68
2022-09-21T14:46:04.989Z,17.37
2022-09-21T14:48:34.445Z,18.30
2022-09-21T14:51:23.721Z,19.30
2022-09-21T14:54:02.856Z,20.18
2022-09-21T14:56:41.354Z,20.20
2022-09-21T14:59:15.424Z,20.10
2022-09-21T15:01:54.500Z,20.03
2022-09-21T15:04:29.164Z,19.72
2022-09-21T15:07:22.251Z,18.98
2022-09-21T15:10:17.535Z,18.44
2022-09-21T15:12:55.757Z,17.87
2022-09-21T15:15:22.075Z,17.51
2022-09-21T15:17:59.159Z,17.23
2022-09-21T15:20:27.056Z,17.06
2022-09-21T15:22:57.344Z,16.85
2022-09-21T15:25:25.636Z,16.58
2022-09-21T15:27:52.827Z,16.31
2022-09-21T15:30:21.330Z,16.00
2022-09-21T15:32:51.206Z,15.86
2022-09-21T15:35:21.826Z,15.85
2022-09-21T15:37:49.192Z,15.84
2022-09-21T15:40:20.580Z,15.80
2022-09-21T15:43:06.529Z,15.61
2022-09-21T15:45:51.838Z,15.42
2022-09-21T15:48:20.571Z,15.31
2022-09-21T15:50:48.696Z,15.31
2022-09-21T15:53:35.842Z,15.16
2022-09-21T15:56:02.440Z,15.02
2022-09-21T15:58:35.694Z,14.87
2022-09-21T16:01:02.954Z,14.76
2022-09-21T16:03:29.309Z,14.71
2022-09-21T16:05:56.260Z,14.61
2022-09-21T16:08:33.512Z,14.51
2022-09-21T16:11:19.090Z,14.40
2022-09-21T16:14:04.764Z,14.30
2022-09-21T16:16:31.152Z,14.16
2022-09-21T16:18:59.975Z,14.08
2022-09-21T16:21:28.069Z,13.94
2022-09-21T16:23:58.405Z,13.87
2022-09-21T16:26:28.256Z,13.86
2022-09-21T16:29:15.719Z,13.82
2022-09-21T16:31:46.234Z,13.69
2022-09-21T16:34:29.522Z,13.55
2022-09-21T16:36:55.775Z,13.39
2022-09-21T16:39:23.299Z,13.25
2022-09-21T16:41:51.909Z,13.19
2022-09-21T16:44:20.793Z,13.12
2022-09-21T16:46:49.844Z,13.06
2022-09-21T16:49:19.774Z,13.01
2022-09-21T16:51:49.391Z,12.95
2022-09-21T16:54:16.780Z,12.86
2022-09-21T16:56:43.074Z,12.86
2022-09-21T16:59:14.231Z,12.83
2022-09-21T17:01:40.526Z,12.79
2022-09-21T17:04:06.864Z,12.74
2022-09-21T17:06:33.162Z,12.72
2022-09-21T17:09:00.200Z,12.65
2022-09-21T17:11:27.009Z,12.58
2022-09-21T17:14:03.724Z,12.57
2022-09-21T17:16:29.999Z,12.55
2022-09-21T17:18:56.253Z,12.48
2022-09-21T17:21:23.627Z,12.44
2022-09-21T17:23:49.889Z,12.44
2022-09-21T17:26:19.196Z,12.43
2022-09-21T17:28:45.680Z,12.38
2022-09-21T17:31:13.901Z,12.36
2022-09-21T17:33:40.661Z,12.33
2022-09-21T17:36:07.802Z,12.32
2022-09-21T17:38:35.346Z,12.30
2022-09-21T17:41:04.449Z,12.25
2022-09-21T17:43:39.209Z,12.20
2022-09-21T17:46:12.507Z,12.16
2022-09-21T17:48:40.202Z,12.18
2022-09-21T17:51:06.743Z,12.16
2022-09-21T17:53:38.966Z,12.17
2022-09-21T17:56:25.644Z,12.11
2022-09-21T17:58:56.972Z,12.07
2022-09-21T18:01:30.888Z,12.06
2022-09-21T18:03:57.659Z,12.04
2022-09-21T18:06:24.137Z,12.04
2022-09-21T18:08:50.538Z,12.02
2022-09-21T18:11:31.883Z,11.94
2022-09-21T18:14:17.247Z,11.88
2022-09-21T18:16:43.608Z,11.88
2022-09-21T18:19:19.854Z,11.83
2022-09-21T18:21:50.490Z,11.81
2022-09-21T18:24:21.537Z,11.77
2022-09-21T18:26:49.094Z,11.74
2022-09-21T18:29:38.836Z,11.73
2022-09-21T18:32:23.636Z,11.68
2022-09-21T18:35:01.650Z,11.64
2022-09-21T18:37:51.536Z,11.57
2022-09-21T18:40:21.912Z,11.57
2022-09-21T18:42:59.388Z,11.55
2022-09-21T18:45:31.834Z,11.55
2022-09-21T18:48:04.901Z,11.52
2022-09-21T18:50:57.321Z,11.54
2022-09-21T18:53:36.966Z,11.58
2022-09-21T18:56:03.718Z,11.55
2022-09-21T18:58:30.524Z,11.57
2022-09-21T19:00:56.969Z,11.50
2022-09-21T19:03:23.502Z,11.40
2022-09-21T19:05:52.715Z,11.34
2022-09-21T19:08:24.401Z,11.29
2022-09-21T19:11:09.548Z,11.23
2022-09-21T19:13:47.898Z,11.20
2022-09-21T19:16:20.423Z,11.20
2022-09-21T19:18:46.768Z,11.20
2022-09-21T19:21:22.821Z,11.16
2022-09-21T19:23:55.381Z,11.15
2022-09-21T19:26:48.324Z,11.13
2022-09-21T19:29:50.360Z,11.11
2022-09-21T19:32:18.219Z,11.00
2022-09-21T19:34:44.721Z,10.96
2022-09-21T19:37:11.548Z,10.90
2022-09-21T19:39:38.030Z,10.90
2022-09-21T19:42:05.031Z,10.88
2022-09-21T19:44:47.590Z,10.82
2022-09-21T19:47:29.378Z,10.75
2022-09-21T19:49:59.725Z,10.73
2022-09-21T19:52:30.530Z,10.73
2022-09-21T19:55:16.202Z,10.71
2022-09-21T19:58:01.212Z,10.70
2022-09-21T20:00:27.647Z,10.66
2022-09-21T20:03:02.682Z,10.61
2022-09-21T20:05:34.928Z,10.58
2022-09-21T20:08:04.290Z,10.57
2022-09-21T20:10:57.030Z,10.62
2022-09-21T20:13:41.730Z,10.60
2022-09-21T20:16:19.286Z,10.62
2022-09-21T20:18:58.916Z,10.62
2022-09-21T20:21:31.857Z,10.58
2022-09-21T20:24:01.522Z,10.56
2022-09-21T20:26:28.038Z,10.53
2022-09-21T20:28:54.858Z,10.49
2022-09-21T20:31:21.904Z,10.41
2022-09-21T20:33:48.359Z,10.36
2022-09-21T20:36:17.582Z,10.34
2022-09-21T20:38:44.241Z,10.31
2022-09-21T20:41:15.477Z,10.32
2022-09-21T20:43:42.034Z,10.32
2022-09-21T20:46:11.588Z,10.33
2022-09-21T20:48:38.323Z,10.27
2022-09-21T20:51:06.060Z,10.22
2022-09-21T20:53:33.220Z,10.19
2022-09-21T20:56:01.870Z,10.12
2022-09-21T20:58:29.110Z,10.09
2022-09-21T21:00:59.019Z,10.09
2022-09-21T21:03:25.630Z,10.03
2022-09-21T21:05:51.884Z,9.95
2022-09-21T21:08:18.139Z,9.92
2022-09-21T21:10:44.867Z,9.91
2022-09-21T21:13:11.114Z,9.84
2022-09-21T21:15:38.376Z,9.77
2022-09-21T21:18:04.668Z,9.72
2022-09-21T21:20:31.396Z,9.66
2022-09-21T21:22:57.668Z,9.62
2022-09-21T21:25:23.909Z,9.58
2022-09-21T21:27:50.152Z,9.51
2022-09-21T21:30:16.414Z,9.46
2022-09-21T21:32:42.829Z,9.41
2022-09-21T21:35:12.369Z,9.37
2022-09-21T21:37:46.583Z,9.31
2022-09-21T21:40:12.902Z,9.30
2022-09-21T21:42:39.450Z,9.23
2022-09-21T21:45:05.972Z,9.16
2022-09-21T21:47:41.379Z,9.10
2022-09-21T21:50:08.372Z,9.04
2022-09-21T21:52:34.605Z,9.02
2022-09-21T21:55:01.028Z,9.03
2022-09-21T21:57:27.280Z,9.02
2022-09-21T21:59:53.526Z,9.00
2022-09-21T22:02:25.864Z,8.94
2022-09-21T22:05:10.090Z,8.92
2022-09-21T22:07:40.275Z,8.86
2022-09-21T22:10:08.792Z,8.84
2022-09-21T22:12:35.657Z,8.82
2022-09-21T22:15:02.808Z,8.73
2022-09-21T22:17:29.090Z,8.67
2022-09-21T22:19:55.697Z,8.63
2022-09-21T22:22:21.958Z,8.55
2022-09-21T22:24:48.242Z,8.49
2022-09-21T22:27:14.520Z,8.42
2022-09-21T22:29:40.753Z,8.36
2022-09-21T22:32:07.008Z,8.31
2022-09-21T22:34:33.249Z,8.25
2022-09-21T22:37:00.503Z,8.17
2022-09-21T22:39:27.129Z,8.12
2022-09-21T22:41:53.691Z,8.09
2022-09-21T22:44:19.969Z,8.02
2022-09-21T22:46:46.204Z,7.98
2022-09-21T22:49:12.637Z,7.95
2022-09-21T22:51:38.975Z,7.88
2022-09-21T22:54:05.409Z,7.83
2022-09-21T22:56:32.701Z,7.79
2022-09-21T22:59:00.141Z,7.76
2022-09-21T23:01:30.902Z,7.70
2022-09-21T23:03:58.698Z,7.69
2022-09-21T23:06:26.585Z,7.61
2022-09-21T23:08:53.757Z,7.57
2022-09-21T23:11:21.781Z,7.53
2022-09-21T23:13:48.520Z,7.47
2022-09-21T23:16:15.522Z,7.45
2022-09-21T23:18:42.303Z,7.40
2022-09-21T23:21:10.919Z,7.38
2022-09-21T23:23:37.195Z,7.36
2022-09-21T23:26:17.420Z,7.32
2022-09-21T23:28:45.611Z,7.27
2022-09-21T23:31:12.992Z,7.22
2022-09-21T23:33:40.812Z,7.17
2022-09-21T23:36:08.211Z,7.13
2022-09-21T23:38:34.708Z,7.09
2022-09-21T23:41:08.583Z,7.07
2022-09-21T23:43:35.524Z,7.02
2022-09-21T23:46:01.969Z,7.00
2022-09-21T23:48:28.553Z,6.99
2022-09-21T23:50:55.463Z,6.98
2022-09-21T23:53:22.504Z,6.97
2022-09-21T23:55:48.908Z,6.93
2022-09-21T23:58:15.471Z,6.89
